aviador You're here:

YPPH Decoded Metar

PERTH in AUSTRALIA
Report Time2018-02-20 03:30:00
UTC Time2018-02-20 03:52:44
Flight Rules vfr VFR
Wind150° at 13 kt
W.Decomp.*RWY 21: 6.9 kt HW 11 kt LCW
RWY 24: 0.5 kt HW 13 kt LCW
W.Rank150° ranks 27
Current wind is above 150° avg. (7.0)
Visibility9999 m
Phenomena:N/A
Clouds:Few 045 Hf
Expected CloudBase > 5,200 ft AGL from Temp-Dew spread
CeilingNone
Temp25°C (ISA +10)
Dew Point12°C (44% RH)
AAT20.9°C
QNH1013 hPa
Density Alt1,401 ft
Elevation43 ft
Report Wrong Elevation
Raw Report
YPPH 200330Z 15013KT 9999 FEW045 25/12 Q1013 NOSIG=

Extra information for YPPH:More info

Metar Taf Metar & Taf Last 4 Metars F.Rules Stats Wind Profile Meteogram Temp Stats Airport Information Weather charts Add Link Nearby VenuesMetar ALERT Operation Metar Decoded Social comments